Estación municipal de Seva (Osona, P.N. del Montseny)

Consulta los datos en tiempo real de la estación municipal de Seva





Hora UTC 06:35
Temperatura 13.1 ºC
Suelo 15 cm 14.2 ºC
Humedad 81.0 %
Presión 1018.6 hPa
Pluja 0.0 mm
Velocidad viento 1.3 km/h
Dirección viento SW
Radiación solar 120.4 W/m²

Webcam

Datos diarios 2026-05-03



Hora UTC (invierno +1h; verano +2h)
Temperatura (ºC) Humedad (%) Presión (hPa) Velocidad viento (km/h) Precipitación (mm) Radiación solar (W/m²)
Hora UTC Aire Suelo 15 cm Humedad Presión Vel. Dir. Vel. Max Dir. Intent. máx 5 min. Rad. Sol.
00:05 12.6 12.0 88.4 1020.6 2.9 S 2.9 SSE 0.0 0.1
00:10 12.6 12.0 88.7 1020.5 2.4 SSW 6.0 S 0.0 0.0
00:15 12.6 11.9 89.0 1020.4 0.9 SSE 3.2 SSE 0.0 0.1
00:20 12.6 12.0 89.2 1020.4 3.0 SSE 6.4 S 0.0 0.1
00:25 12.6 12.0 89.3 1020.3 2.6 SSE 6.0 SSE 0.0 0.0
00:30 12.7 12.0 89.5 1020.2 4.5 SE 7.8 SSE 0.0 0.1
00:35 12.7 12.0 89.8 1020.1 4.1 SSE 9.9 SSE 0.0 0.1
00:40 12.7 12.1 89.9 1020.1 4.4 S 9.2 S 0.0 0.0
00:45 12.7 12.1 90.0 1020.1 2.5 S 6.7 S 0.0 0.0
00:50 12.7 12.1 90.0 1020.0 2.3 S 6.7 S 0.0 0.1
00:55 12.7 12.1 89.9 1019.9 1.5 S 5.3 S 0.0 0.1
01:00 12.7 12.1 89.4 1019.8 3.8 S 8.8 S 0.0 0.0
01:05 12.7 12.1 89.0 1019.7 3.4 S 8.1 SSE 0.0 0.1
01:10 12.8 12.1 88.8 1019.7 3.1 SSW 8.8 SSW 0.0 0.1
01:15 12.8 12.1 89.0 1019.7 4.8 S 9.9 SSE 0.0 0.1
01:20 12.7 12.1 89.4 1019.7 3.8 SSE 9.9 S 0.0 0.0
01:25 12.7 12.1 89.6 1019.6 4.8 SSE 8.5 SSE 0.0 0.1
01:30 12.7 12.1 89.8 1019.7 3.9 S 6.7 SSE 0.0 0.1
01:35 12.7 12.0 89.9 1019.6 1.6 SE 7.8 S 0.0 0.1
01:40 12.7 12.0 89.6 1019.4 1.7 ESE 5.3 S 0.0 0.1
01:45 12.6 12.0 88.8 1019.4 1.8 SE 5.6 ESE 0.0 0.0
01:50 12.6 11.8 88.1 1019.4 1.7 SSW 3.5 SSW 0.0 0.1
01:55 12.6 11.8 88.1 1019.3 1.7 S 4.6 SSW 0.0 0.0
02:00 12.6 11.8 88.3 1019.3 1.3 SSW 5.6 SSW 0.0 0.1
02:05 12.6 11.8 87.9 1019.2 2.0 E 4.2 E 0.0 0.0
02:10 12.4 11.8 84.6 1019.2 1.3 ENE 4.9 ENE 0.0 0.0
02:15 12.4 11.7 81.8 1019.2 2.1 E 3.9 ENE 0.0 0.1
02:20 12.4 11.7 80.9 1019.2 1.3 NE 3.2 NE 0.0 0.1
02:25 12.4 11.6 80.5 1019.1 1.3 ENE 3.2 ENE 0.0 0.1
02:30 12.4 11.6 81.0 1019.0 0.4 ENE 1.8 E 0.0 0.1
02:35 12.3 11.6 81.2 1019.1 0.6 WSW 2.5 SW 0.0 0.1
02:40 12.4 11.6 81.1 1019.0 2.5 W 4.2 WSW 0.0 0.1
02:45 12.5 11.7 80.8 1019.1 3.9 WSW 5.3 WSW 0.0 0.0
02:50 12.4 11.8 81.3 1019.3 4.7 W 9.5 WNW 0.0 0.0
02:55 12.4 11.9 85.5 1019.3 6.4 WSW 10.2 WSW 0.0 0.1
03:00 12.6 12.0 90.0 1019.3 5.6 WSW 11.6 SW 0.0 0.1
03:05 12.5 12.0 89.9 1019.2 5.5 WSW 10.2 W 0.0 0.0
03:10 12.5 11.9 89.4 1019.2 1.6 SW 3.9 SW 0.0 0.1
03:15 12.4 11.9 88.6 1019.1 3.3 SW 6.7 WSW 0.0 0.1
03:20 12.5 11.8 88.3 1019.1 1.7 SW 4.9 SSW 0.0 0.0
03:25 12.4 11.8 87.7 1019.0 2.7 S 6.0 SSE 0.0 0.1
03:30 12.3 11.7 86.8 1019.1 3.8 SSW 7.1 SW 0.0 0.1
03:35 12.3 11.7 85.5 1019.0 2.6 S 6.0 SSW 0.0 0.1
03:40 12.2 11.6 84.5 1019.0 3.6 SSW 7.2 SSW 0.0 0.1
03:45 12.2 11.5 84.3 1019.0 2.2 SSW 5.8 SW 0.0 0.0
03:50 12.2 11.5 84.4 1019.0 3.5 SSW 8.5 WSW 0.0 0.1
03:55 12.1 11.4 84.5 1018.9 2.5 S 7.1 S 0.0 0.0
04:00 12.1 11.4 84.9 1018.9 1.5 S 3.9 S 0.0 0.1
04:05 12.1 11.3 85.2 1019.0 2.6 SSW 6.0 SSW 0.0 0.1
04:10 12.1 11.3 85.7 1018.9 2.1 SW 4.2 SW 0.0 0.1
04:15 12.1 11.3 86.1 1018.9 2.0 SSW 4.9 SSW 0.0 0.1
04:20 12.0 11.2 86.5 1018.8 2.9 SSW 4.9 SSW 0.0 0.1
04:25 12.0 11.1 86.9 1018.8 1.8 SSW 3.5 SSW 0.0 0.1
04:30 11.9 10.9 87.1 1018.7 1.8 SSW 3.5 S 0.0 0.1
04:35 11.8 10.5 87.8 1018.6 0.8 S 2.5 S 0.0 0.2
04:40 11.5 10.0 88.6 1018.6 0.5 ESE 2.1 E 0.0 0.6
04:45 11.3 9.5 89.7 1018.5 2.3 ESE 3.2 ESE 0.0 1.3
04:50 11.0 9.2 90.2 1018.5 3.1 ESE 4.6 ESE 0.0 2.7
04:55 10.7 8.9 91.0 1018.5 4.1 ESE 5.3 ESE 0.0 5.5
05:00 10.6 8.8 92.0 1018.6 3.1 SE 4.6 SE 0.0 10.4
05:05 10.6 8.8 92.6 1018.7 3.2 SE 5.6 SE 0.0 15.5
05:10 10.6 9.2 93.1 1018.8 2.6 SSE 4.6 SSE 0.0 13.9
05:15 10.8 9.5 93.4 1018.8 3.4 SE 4.9 SE 0.0 14.0
05:20 10.9 9.8 93.2 1018.7 4.9 SE 6.7 ESE 0.0 19.0
05:25 11.1 10.1 92.6 1018.6 4.9 SE 7.4 ESE 0.0 25.8
05:30 11.2 10.3 91.8 1018.6 4.8 ESE 7.4 ESE 0.0 31.7
05:35 11.3 10.3 91.1 1018.6 4.7 ESE 7.1 ESE 0.0 39.3
05:40 11.4 10.4 90.6 1018.5 4.0 ESE 6.0 ESE 0.0 54.9
05:45 11.5 10.8 90.3 1018.5 2.9 ESE 9.5 ESE 0.0 94.2
05:50 11.7 11.3 88.6 1018.4 5.4 ESE 10.6 ESE 0.0 105.9
05:55 12.0 11.8 86.5 1018.4 4.6 ESE 9.2 SE 0.0 85.3
06:00 12.3 12.2 84.4 1018.6 2.8 W 4.9 W 0.0 36.5
06:05 12.4 12.2 84.2 1018.6 0.2 WSW 2.8 WSW 0.0 34.6
06:10 12.5 12.3 83.9 1018.6 1.8 W 5.3 W 0.0 47.6
06:15 12.6 12.6 83.0 1018.6 1.2 SW 4.6 SW 0.0 79.0
06:20 12.8 13.0 82.7 1018.6 3.2 SW 4.9 W 0.0 97.9
06:25 12.8 13.5 82.9 1018.6 3.5 WSW 6.0 W 0.0 127.9
06:30 12.9 14.0 82.2 1018.6 1.6 WSW 4.2 SW 0.0 121.3
06:35 13.1 14.2 81.0 1018.6 1.3 SW 3.9 SW 0.0 120.4
Máxima 13.1 14.2 93.4 1020.6 6.4 WSW 11.6 SW 0.0 127.9
Mínima 10.6 8.8 80.5 1018.4
Total 0.0